Time;durP1;ratioP1;P1;durP2;ratioP2;P2;SDS_P1;SDS_P2;PMS_P1;PMS_P2;Temp;Humidity;BMP_temperature;BMP_pressure;BME280_temperature;BME280_humidity;BME280_pressure;Samples;Min_cycle;Max_cycle;Signal;HPM_P1;HPM_P2
2021/08/14 00:02:18;;;;;;;3.08;2.03;;;14.80;99.90;;;;;;5097996;28;20024;-68
2021/08/14 00:04:44;;;;;;;3.78;2.00;;;14.70;99.90;;;;;;5097958;28;20024;-68
2021/08/14 00:07:09;;;;;;;4.72;2.10;;;14.70;99.90;;;;;;5096419;28;20035;-68
2021/08/14 00:09:36;;;;;;;3.63;1.95;;;14.50;99.90;;;;;;5097984;28;20028;-68
2021/08/14 00:12:04;;;;;;;2.55;1.80;;;14.60;99.90;;;;;;5097904;28;20030;-67
2021/08/14 00:14:30;;;;;;;5.40;1.92;;;14.60;99.90;;;;;;5097938;28;20024;-67
2021/08/14 00:16:56;;;;;;;5.93;2.40;;;14.50;99.90;;;;;;5097897;28;20028;-67
2021/08/14 00:19:22;;;;;;;3.33;2.47;;;14.50;99.90;;;;;;5097717;28;20027;-67
2021/08/14 00:21:48;;;;;;;4.35;2.30;;;14.40;99.90;;;;;;5097544;28;20031;-67
2021/08/14 00:24:14;;;;;;;3.88;2.30;;;14.40;99.90;;;;;;5097512;28;20036;-67
2021/08/14 00:26:40;;;;;;;3.42;2.22;;;14.40;99.90;;;;;;5097573;28;20012;-67
2021/08/14 00:29:05;;;;;;;5.95;2.38;;;14.40;99.90;;;;;;5097785;28;20361;-67
2021/08/14 00:31:31;;;;;;;6.65;2.75;;;14.40;99.90;;;;;;5097337;28;20016;-67
2021/08/14 00:33:57;;;;;;;5.72;2.70;;;14.50;99.90;;;;;;5097053;28;20445;-67
2021/08/14 00:36:24;;;;;;;6.93;2.60;;;14.40;99.90;;;;;;5095747;28;20040;-67
2021/08/14 00:38:50;;;;;;;3.15;2.30;;;14.30;99.90;;;;;;5097307;28;20036;-67
2021/08/14 00:41:16;;;;;;;4.55;2.10;;;14.30;99.90;;;;;;5095878;28;20438;-66
2021/08/14 00:43:44;;;;;;;4.75;2.45;;;14.20;99.90;;;;;;5097031;28;20085;-67
2021/08/14 00:46:10;;;;;;;4.70;2.00;;;14.30;99.90;;;;;;5097278;28;20027;-67
2021/08/14 00:48:36;;;;;;;4.03;2.25;;;14.10;99.90;;;;;;5097247;28;20102;-68
2021/08/14 00:51:05;;;;;;;7.00;2.45;;;14.20;99.90;;;;;;5097217;28;20016;-67
2021/08/14 00:53:31;;;;;;;2.53;2.08;;;14.10;99.90;;;;;;5096722;28;20024;-67
2021/08/14 00:55:56;;;;;;;3.20;2.10;;;14.20;99.90;;;;;;5097302;28;20020;-67
2021/08/14 00:58:23;;;;;;;3.03;2.35;;;14.10;99.90;;;;;;5096899;28;20086;-67
2021/08/14 01:00:49;;;;;;;6.55;2.10;;;14.10;99.90;;;;;;5095770;28;20031;-67
2021/08/14 01:03:15;;;;;;;4.22;2.50;;;13.90;99.90;;;;;;5096786;28;20031;-67
2021/08/14 01:05:43;;;;;;;4.22;2.10;;;14.00;99.90;;;;;;5097150;28;20016;-67
2021/08/14 01:08:09;;;;;;;5.57;2.45;;;13.90;99.90;;;;;;5096516;28;20020;-66
2021/08/14 01:10:35;;;;;;;2.40;2.08;;;13.90;99.90;;;;;;5097140;28;20020;-66
2021/08/14 01:13:01;;;;;;;5.38;2.20;;;13.90;99.90;;;;;;5096793;28;20036;-67
2021/08/14 01:15:28;;;;;;;5.90;2.22;;;13.80;99.90;;;;;;5096886;28;20020;-67
2021/08/14 01:17:55;;;;;;;3.22;2.28;;;13.80;99.90;;;;;;5096679;28;20384;-67
2021/08/14 01:20:21;;;;;;;3.50;2.05;;;13.80;99.90;;;;;;5096965;28;20020;-67
2021/08/14 01:22:46;;;;;;;3.08;1.85;;;13.80;99.90;;;;;;5096330;28;20035;-67
2021/08/14 01:25:12;;;;;;;5.90;2.42;;;13.80;99.90;;;;;;5096744;28;20012;-67
2021/08/14 01:27:39;;;;;;;6.10;2.17;;;13.70;99.90;;;;;;5096560;28;20024;-67
2021/08/14 01:30:06;;;;;;;2.60;1.77;;;13.80;99.90;;;;;;5096954;28;20488;-67
2021/08/14 01:32:33;;;;;;;3.15;1.73;;;13.70;99.90;;;;;;5096500;28;20430;-67
2021/08/14 01:34:59;;;;;;;5.82;2.42;;;13.60;99.90;;;;;;5096480;28;20089;-67
2021/08/14 01:37:30;;;;;;;4.45;2.05;;;13.60;99.90;;;;;;5096404;28;20016;-67
2021/08/14 01:39:56;;;;;;;4.30;1.92;;;13.60;99.90;;;;;;5096650;28;20024;-67
2021/08/14 01:42:22;;;;;;;4.60;1.67;;;13.50;99.90;;;;;;5096560;28;20039;-67
2021/08/14 01:44:48;;;;;;;3.85;2.00;;;13.60;99.90;;;;;;5096876;28;21111;-67
2021/08/14 01:47:14;;;;;;;4.18;2.50;;;13.50;99.90;;;;;;5100680;28;20016;-66
2021/08/14 01:49:40;;;;;;;5.57;2.35;;;13.50;99.90;;;;;;5100632;28;20024;-67
2021/08/14 01:52:14;;;;;;;3.83;2.42;;;13.50;99.90;;;;;;5100521;28;20031;-67
2021/08/14 01:54:41;;;;;;;6.32;2.30;;;13.50;99.90;;;;;;5099027;28;20039;-67
2021/08/14 01:57:07;;;;;;;4.30;1.95;;;13.30;99.90;;;;;;5100671;28;20028;-67
2021/08/14 01:59:34;;;;;;;2.80;1.83;;;13.50;99.90;;;;;;5100506;28;20027;-67
2021/08/14 02:02:00;;;;;;;3.53;2.00;;;13.40;99.90;;;;;;5100247;28;20394;-67
2021/08/14 02:04:27;;;;;;;1.90;1.70;;;13.40;99.90;;;;;;5100327;28;20035;-67
2021/08/14 02:06:53;;;;;;;2.88;2.00;;;13.30;99.90;;;;;;5100048;28;20027;-67
2021/08/14 02:09:18;;;;;;;6.00;2.70;;;13.30;99.90;;;;;;5100135;28;20024;-68
2021/08/14 02:11:44;;;;;;;3.78;2.70;;;13.30;99.90;;;;;;5100012;28;20024;-67
2021/08/14 02:14:12;;;;;;;6.20;2.25;;;13.30;99.90;;;;;;5100231;28;20029;-67
2021/08/14 02:16:38;;;;;;;3.15;2.20;;;13.10;99.90;;;;;;5098664;28;20020;-67
2021/08/14 02:19:05;;;;;;;2.53;2.08;;;13.20;99.90;;;;;;5098944;28;20028;-67
2021/08/14 02:21:31;;;;;;;3.80;2.20;;;13.30;99.90;;;;;;5099504;28;20087;-67
2021/08/14 02:23:58;;;;;;;3.33;2.10;;;13.10;99.90;;;;;;5099895;28;20081;-67
2021/08/14 02:26:25;;;;;;;3.72;2.08;;;13.10;99.90;;;;;;5099686;28;20063;-67
2021/08/14 02:28:51;;;;;;;2.88;1.90;;;13.10;99.90;;;;;;5100005;28;20039;-67
2021/08/14 02:31:17;;;;;;;2.00;1.77;;;13.10;99.90;;;;;;5099507;28;20027;-67
2021/08/14 02:33:44;;;;;;;3.22;1.92;;;13.10;99.90;;;;;;5099814;28;20396;-67
2021/08/14 02:36:10;;;;;;;6.43;1.80;;;13.00;99.90;;;;;;5099274;28;20576;-67
2021/08/14 02:38:38;;;;;;;3.88;1.70;;;13.00;99.90;;;;;;5098433;28;20119;-67
2021/08/14 02:41:06;;;;;;;4.10;1.90;;;13.00;99.90;;;;;;5098249;28;20115;-66
2021/08/14 02:43:32;;;;;;;3.30;1.65;;;12.90;99.90;;;;;;5099547;28;20027;-67
2021/08/14 02:46:00;;;;;;;2.28;1.38;;;12.90;99.90;;;;;;5099449;28;20024;-67
2021/08/14 02:48:27;;;;;;;2.53;1.85;;;12.90;99.90;;;;;;5099586;28;20103;-67
2021/08/14 02:50:53;;;;;;;3.60;1.48;;;12.90;99.90;;;;;;5099337;28;20499;-67
2021/08/14 02:53:19;;;;;;;3.25;1.83;;;12.60;99.90;;;;;;5099052;28;20028;-67
2021/08/14 02:55:45;;;;;;;2.83;1.70;;;12.70;99.90;;;;;;5098991;28;20027;-67
2021/08/14 02:58:10;;;;;;;4.45;1.98;;;12.80;99.90;;;;;;5099305;28;20369;-67
2021/08/14 03:00:37;;;;;;;4.40;1.70;;;12.80;99.90;;;;;;5099286;28;20150;-67
2021/08/14 03:03:03;;;;;;;13.30;3.67;;;12.80;99.90;;;;;;5097866;28;20024;-67
2021/08/14 03:05:29;;;;;;;2.42;1.70;;;12.70;99.90;;;;;;5099050;28;20361;-67
2021/08/14 03:07:55;;;;;;;2.22;1.50;;;12.80;99.90;;;;;;5098972;28;20032;-67
2021/08/14 03:10:21;;;;;;;2.75;1.80;;;12.60;99.90;;;;;;5098867;28;20077;-67
2021/08/14 03:12:47;;;;;;;3.25;1.77;;;12.70;99.90;;;;;;5098985;28;20046;-67
2021/08/14 03:15:13;;;;;;;3.60;1.75;;;12.60;99.90;;;;;;5098861;28;20024;-67
2021/08/14 03:17:39;;;;;;;2.92;1.77;;;12.60;99.90;;;;;;5098936;28;20048;-67
2021/08/14 03:20:06;;;;;;;2.95;1.98;;;12.60;99.90;;;;;;5098964;28;20031;-67
2021/08/14 03:22:32;;;;;;;2.42;1.90;;;12.40;99.90;;;;;;5098727;28;20024;-67
2021/08/14 03:24:58;;;;;;;2.95;1.90;;;12.50;99.90;;;;;;5098462;28;20039;-67
2021/08/14 03:27:24;;;;;;;3.60;2.00;;;12.50;99.90;;;;;;5098615;28;20020;-67
2021/08/14 03:29:50;;;;;;;3.28;1.50;;;12.50;99.90;;;;;;5097311;28;20081;-67
2021/08/14 03:32:16;;;;;;;6.70;1.95;;;12.50;99.90;;;;;;5098564;28;20369;-66
2021/08/14 03:34:42;;;;;;;3.42;1.77;;;12.20;99.90;;;;;;5098284;28;20030;-67
2021/08/14 03:37:07;;;;;;;4.43;2.03;;;12.40;99.90;;;;;;5098300;28;20125;-67
2021/08/14 03:39:33;;;;;;;2.35;1.77;;;12.40;99.90;;;;;;5097133;28;20028;-68
2021/08/14 03:42:00;;;;;;;2.60;1.67;;;12.30;99.90;;;;;;5098671;28;20024;-67
2021/08/14 03:44:26;;;;;;;2.55;2.03;;;12.30;99.90;;;;;;5098365;28;20495;-67
2021/08/14 03:46:51;;;;;;;2.15;1.75;;;12.30;99.90;;;;;;5098399;28;20024;-67
2021/08/14 03:49:17;;;;;;;5.25;1.73;;;12.30;99.90;;;;;;5098140;28;20050;-67
2021/08/14 03:51:43;;;;;;;3.97;2.22;;;12.20;99.90;;;;;;5096655;28;20020;-67
2021/08/14 03:54:09;;;;;;;4.35;2.28;;;12.20;99.90;;;;;;5096698;28;20408;-67
2021/08/14 03:56:35;;;;;;;2.85;1.50;;;12.20;99.90;;;;;;5098323;28;20103;-67
2021/08/14 03:59:01;;;;;;;3.17;2.25;;;12.30;99.90;;;;;;5097950;28;20035;-67
2021/08/14 04:01:26;;;;;;;6.03;1.88;;;12.10;99.90;;;;;;5098078;28;20077;-67
2021/08/14 04:03:53;;;;;;;3.08;2.05;;;12.10;99.90;;;;;;5096540;28;20024;-66
2021/08/14 04:06:18;;;;;;;2.13;1.83;;;12.20;99.90;;;;;;5097857;28;20024;-67
2021/08/14 04:08:44;;;;;;;3.25;1.80;;;12.10;99.90;;;;;;5097154;28;20031;-67
2021/08/14 04:11:10;;;;;;;4.50;2.15;;;12.20;99.90;;;;;;5096556;28;20025;-67
2021/08/14 04:13:36;;;;;;;2.92;1.92;;;12.10;99.90;;;;;;5097890;28;20522;-67
2021/08/14 04:16:02;;;;;;;3.45;1.65;;;12.10;99.90;;;;;;5098014;28;20020;-67
2021/08/14 04:18:28;;;;;;;3.63;1.88;;;12.00;99.90;;;;;;5097715;28;20039;-67
2021/08/14 04:20:55;;;;;;;3.72;1.90;;;12.10;99.90;;;;;;5097828;28;20099;-68
2021/08/14 04:23:21;;;;;;;5.15;2.60;;;11.90;99.90;;;;;;5096987;28;20415;-67
2021/08/14 04:25:47;;;;;;;4.28;1.80;;;12.10;99.90;;;;;;5096416;28;20026;-67
2021/08/14 04:28:12;;;;;;;2.13;1.73;;;12.00;99.90;;;;;;5097446;28;20103;-67
2021/08/14 04:30:38;;;;;;;4.63;2.10;;;11.90;99.90;;;;;;5097618;28;20047;-67
2021/08/14 04:33:04;;;;;;;1.85;1.38;;;11.90;99.90;;;;;;5097388;28;20024;-66
2021/08/14 04:35:30;;;;;;;2.50;1.70;;;11.90;99.90;;;;;;5097333;28;20051;-67
2021/08/14 04:37:56;;;;;;;3.63;1.88;;;12.00;99.90;;;;;;5095768;28;20488;-66
2021/08/14 04:40:22;;;;;;;3.15;1.88;;;11.80;99.90;;;;;;5097354;28;20020;-67
2021/08/14 04:42:48;;;;;;;6.60;3.35;;;11.80;99.90;;;;;;5097169;28;20038;-67
2021/08/14 04:45:14;;;;;;;2.92;1.75;;;12.00;99.90;;;;;;5097300;28;20507;-67
2021/08/14 04:47:41;;;;;;;5.57;2.00;;;12.00;99.90;;;;;;5097159;28;20028;-67
2021/08/14 04:50:08;;;;;;;6.22;2.13;;;11.90;99.90;;;;;;5097365;28;20028;-67
2021/08/14 04:52:34;;;;;;;3.78;2.13;;;11.90;99.90;;;;;;5095642;28;20028;-67
2021/08/14 04:55:01;;;;;;;6.15;1.90;;;12.00;99.90;;;;;;5097038;28;20028;-67
2021/08/14 04:57:27;;;;;;;8.40;2.70;;;12.00;99.90;;;;;;5096956;28;20046;-67
2021/08/14 04:59:52;;;;;;;6.57;2.60;;;12.00;99.90;;;;;;5095695;28;20047;-67
2021/08/14 05:02:19;;;;;;;3.67;2.75;;;12.20;99.90;;;;;;5096904;28;20020;-67
2021/08/14 05:04:45;;;;;;;4.60;2.20;;;12.10;99.90;;;;;;5097005;28;20415;-68
2021/08/14 05:07:11;;;;;;;3.10;2.05;;;12.10;99.90;;;;;;5096672;28;20024;-66
2021/08/14 05:09:38;;;;;;;3.50;1.98;;;12.20;99.90;;;;;;5095684;28;20027;-67
2021/08/14 05:12:05;;;;;;;3.90;1.90;;;12.20;99.90;;;;;;5096819;28;20028;-67
2021/08/14 05:14:31;;;;;;;4.70;2.08;;;12.10;99.90;;;;;;5096913;28;20028;-67
2021/08/14 05:16:57;;;;;;;2.88;2.05;;;12.30;99.90;;;;;;5096844;28;20084;-67
2021/08/14 05:19:22;;;;;;;2.60;2.28;;;12.30;99.90;;;;;;5096234;28;20031;-68
2021/08/14 05:21:48;;;;;;;2.80;2.50;;;12.20;99.90;;;;;;5096222;28;20027;-67
2021/08/14 05:24:14;;;;;;;2.92;1.88;;;12.30;99.90;;;;;;5096650;28;20059;-67
2021/08/14 05:26:42;;;;;;;2.47;2.15;;;12.30;99.90;;;;;;5096765;28;20103;-67
2021/08/14 05:29:08;;;;;;;4.05;1.85;;;12.30;99.90;;;;;;5096656;28;20016;-66
2021/08/14 05:31:34;;;;;;;5.43;1.70;;;12.20;99.90;;;;;;5096694;28;20020;-67
2021/08/14 05:34:04;;;;;;;1.42;1.25;;;12.30;99.90;;;;;;5096931;28;20024;-67
2021/08/14 05:36:31;;;;;;;2.63;1.58;;;12.30;99.90;;;;;;5096322;28;20048;-67
2021/08/14 05:38:57;;;;;;;4.18;1.77;;;12.40;99.90;;;;;;5096678;28;20024;-66
2021/08/14 05:41:23;;;;;;;1.52;1.42;;;12.40;99.90;;;;;;5095311;28;20035;-67
2021/08/14 05:43:49;;;;;;;1.90;1.60;;;12.40;99.90;;;;;;5096528;28;20024;-67
2021/08/14 05:46:15;;;;;;;2.47;1.67;;;12.50;99.90;;;;;;5096646;28;20099;-66
2021/08/14 05:48:41;;;;;;;2.92;1.90;;;12.60;99.90;;;;;;5096465;28;20016;-67
2021/08/14 05:51:09;;;;;;;2.22;1.70;;;12.70;99.90;;;;;;5096476;28;20404;-67
2021/08/14 05:53:35;;;;;;;1.70;1.58;;;13.00;99.90;;;;;;5095030;28;20024;-66
2021/08/14 05:56:01;;;;;;;5.78;2.08;;;13.00;99.90;;;;;;5096563;28;20039;-67
2021/08/14 05:58:26;;;;;;;2.97;1.92;;;13.20;99.90;;;;;;5096450;28;20575;-67
2021/08/14 06:00:52;;;;;;;2.75;1.60;;;13.30;99.90;;;;;;5096595;28;20035;-67
2021/08/14 06:03:18;;;;;;;4.28;1.60;;;13.60;99.90;;;;;;5096161;28;20016;-67
2021/08/14 06:05:47;;;;;;;4.95;1.88;;;13.90;99.90;;;;;;5095403;28;20081;-67
2021/08/14 06:08:13;;;;;;;2.50;1.83;;;14.10;99.90;;;;;;5096009;28;20017;-67
2021/08/14 06:10:39;;;;;;;3.45;1.67;;;14.40;99.90;;;;;;5096563;28;20467;-67
2021/08/14 06:13:05;;;;;;;1.98;1.67;;;14.50;99.90;;;;;;5096378;28;20112;-67
2021/08/14 06:15:30;;;;;;;3.95;2.22;;;14.80;99.90;;;;;;5096498;28;20560;-67
2021/08/14 06:17:56;;;;;;;4.80;2.00;;;15.00;99.90;;;;;;5096246;28;20083;-67
2021/08/14 06:20:23;;;;;;;3.63;2.20;;;15.30;99.90;;;;;;5096412;28;20369;-67
2021/08/14 06:22:49;;;;;;;16.77;4.10;;;15.60;99.90;;;;;;5095781;28;20098;-67
2021/08/14 06:25:15;;;;;;;12.18;3.70;;;16.00;99.90;;;;;;5095022;28;20059;-67
2021/08/14 06:27:41;;;;;;;7.18;2.97;;;16.20;99.90;;;;;;5094710;28;20028;-67
2021/08/14 06:30:11;;;;;;;10.98;3.58;;;16.80;99.90;;;;;;5094935;28;20433;-67
2021/08/14 06:32:37;;;;;;;10.30;3.55;;;;;;;;;;5097704;28;20020;-67
2021/08/14 06:35:03;;;;;;;4.63;3.00;;;17.10;99.90;;;;;;5099874;28;20063;-67
2021/08/14 06:37:29;;;;;;;7.13;3.05;;;17.30;99.90;;;;;;5099336;28;20073;-66
2021/08/14 06:39:54;;;;;;;5.18;2.55;;;17.50;99.90;;;;;;5099763;28;20028;-66
2021/08/14 06:42:20;;;;;;;10.55;4.03;;;17.80;99.90;;;;;;5099533;28;20491;-67
2021/08/14 06:44:46;;;;;;;10.93;3.60;;;18.10;99.90;;;;;;5099771;28;20024;-66
2021/08/14 06:47:12;;;;;;;5.25;2.40;;;18.30;99.90;;;;;;5098021;28;20047;-67
2021/08/14 06:49:38;;;;;;;7.03;2.83;;;18.60;99.90;;;;;;5099698;28;20053;-67
2021/08/14 06:52:04;;;;;;;7.82;3.22;;;18.90;99.90;;;;;;5097797;28;20044;-67
2021/08/14 06:54:29;;;;;;;9.30;3.15;;;19.20;99.90;;;;;;5099534;28;20027;-67
2021/08/14 06:56:55;;;;;;;9.73;3.35;;;19.60;99.90;;;;;;5099251;28;20024;-67
2021/08/14 06:59:21;;;;;;;9.95;3.63;;;19.80;99.90;;;;;;5099204;28;20026;-67
2021/08/14 07:01:47;;;;;;;9.90;4.03;;;20.10;99.90;;;;;;5099156;28;20016;-67
2021/08/14 07:04:13;;;;;;;8.63;3.25;;;20.40;99.90;;;;;;5099250;28;20028;-68
2021/08/14 07:06:42;;;;;;;5.20;2.60;;;;;;;;;;5098813;28;20026;-68
2021/08/14 07:09:08;;;;;;;9.90;3.70;;;21.00;99.90;;;;;;5097700;28;20055;-68
2021/08/14 07:11:34;;;;;;;6.15;2.92;;;21.40;99.90;;;;;;5099057;28;20020;-69
2021/08/14 07:14:00;;;;;;;8.60;3.60;;;;;;;;;;5097759;28;20118;-68
2021/08/14 07:16:26;;;;;;;6.43;3.13;;;21.80;99.90;;;;;;5098883;28;20027;-68
2021/08/14 07:18:52;;;;;;;9.23;2.65;;;21.80;99.90;;;;;;5099068;28;20526;-68
2021/08/14 07:21:17;;;;;;;8.70;2.90;;;21.90;99.90;;;;;;5098549;28;20055;-68
2021/08/14 07:23:43;;;;;;;7.93;3.08;;;22.00;99.90;;;;;;5098529;28;20035;-68
2021/08/14 07:26:09;;;;;;;6.93;2.95;;;22.10;99.90;;;;;;5098759;28;20024;-68
2021/08/14 07:28:35;;;;;;;10.68;3.42;;;22.00;99.90;;;;;;5098922;28;20054;-67
2021/08/14 07:31:01;;;;;;;11.57;3.90;;;22.00;99.90;;;;;;5092904;28;20020;-72
2021/08/14 07:33:27;;;;;;;6.82;3.00;;;21.90;99.90;;;;;;5097834;28;20085;-72
2021/08/14 07:35:53;;;;;;;7.72;2.90;;;21.90;99.90;;;;;;5098297;28;20076;-73
2021/08/14 07:38:19;;;;;;;8.95;3.45;;;21.90;99.90;;;;;;5108698;28;20048;-74
2021/08/14 07:40:44;;;;;;;7.25;2.67;;;21.90;99.90;;;;;;5098354;28;20035;-68
2021/08/14 07:43:10;;;;;;;6.88;3.13;;;21.80;99.90;;;;;;5097342;28;20028;-68
2021/08/14 07:45:37;;;;;;;8.32;2.75;;;21.80;99.90;;;;;;5097935;28;20078;-68
2021/08/14 07:48:04;;;;;;;6.70;2.65;;;21.90;99.90;;;;;;5098740;28;20028;-67
2021/08/14 07:50:31;;;;;;;4.45;2.65;;;22.10;99.90;;;;;;5102020;28;20019;-68
2021/08/14 07:52:59;;;;;;;8.13;2.80;;;22.10;99.90;;;;;;5097455;28;20555;-68
2021/08/14 07:55:29;;;;;;;6.38;2.20;;;22.20;99.90;;;;;;5098000;28;20054;-68
2021/08/14 07:57:55;;;;;;;6.13;2.45;;;22.20;99.90;;;;;;5098292;28;20073;-68
2021/08/14 08:00:23;;;;;;;5.50;2.75;;;22.20;99.90;;;;;;5095830;28;20048;-68
2021/08/14 08:02:49;;;;;;;7.13;2.60;;;22.20;99.90;;;;;;5097269;28;20043;-68
2021/08/14 08:05:15;;;;;;;6.72;2.40;;;22.40;99.90;;;;;;5097837;28;20032;-68
2021/08/14 08:07:43;;;;;;;7.85;2.60;;;22.50;99.90;;;;;;5097269;28;20020;-68
2021/08/14 08:10:14;;;;;;;6.13;2.25;;;22.60;99.90;;;;;;5097661;28;20020;-68
2021/08/14 08:12:41;;;;;;;4.75;2.70;;;22.80;99.90;;;;;;5097971;28;20040;-62
2021/08/14 08:15:08;;;;;;;9.18;2.97;;;22.90;99.90;;;;;;5097369;28;20028;-62
2021/08/14 08:17:34;;;;;;;5.03;2.58;;;23.10;99.90;;;;;;5097694;28;20036;-61
2021/08/14 08:20:01;;;;;;;6.15;3.00;;;;;;;;;;5097580;28;20064;-62
2021/08/14 08:22:29;;;;;;;5.35;2.25;;;;;;;;;;5097187;28;20032;-62
2021/08/14 08:24:56;;;;;;;5.00;1.58;;;24.40;99.90;;;;;;5095964;28;20020;-62
2021/08/14 08:27:23;;;;;;;8.85;2.75;;;24.40;99.90;;;;;;5096673;28;20028;-62
2021/08/14 08:29:49;;;;;;;4.13;2.45;;;24.90;99.90;;;;;;5097320;28;20031;-62
2021/08/14 08:32:15;;;;;;;4.53;1.95;;;25.80;99.90;;;;;;5097256;28;20016;-62
2021/08/14 08:34:41;;;;;;;4.63;2.15;;;26.00;99.90;;;;;;5097422;28;20031;-63
2021/08/14 08:37:06;;;;;;;6.75;2.45;;;26.50;99.90;;;;;;5097189;28;20049;-62
2021/08/14 08:39:34;;;;;;;6.22;2.88;;;27.30;99.90;;;;;;5097413;28;20132;-62
2021/08/14 08:42:00;;;;;;;6.28;2.28;;;27.60;99.90;;;;;;5097316;28;20503;-62
2021/08/14 08:44:26;;;;;;;6.47;2.58;;;28.10;99.90;;;;;;5097316;28;20115;-68
2021/08/14 08:46:52;;;;;;;5.05;2.85;;;28.40;99.90;;;;;;5096312;28;20024;-68
2021/08/14 08:49:19;;;;;;;5.05;2.35;;;29.20;99.90;;;;;;5095709;28;20031;-68
2021/08/14 08:51:46;;;;;;;3.92;1.92;;;29.40;99.60;;;;;;5096821;28;20044;-68
2021/08/14 08:54:14;;;;;;;4.43;2.10;;;29.90;99.00;;;;;;5095498;28;20436;-68
2021/08/14 08:56:40;;;;;;;6.93;2.28;;;30.30;98.50;;;;;;5096898;28;20024;-68
2021/08/14 08:59:08;;;;;;;5.68;2.55;;;30.60;97.70;;;;;;5097356;28;20081;-68
2021/08/14 09:01:36;;;;;;;6.82;1.90;;;;;;;;;;5097092;28;20027;-68
2021/08/14 09:04:28;;;;;;;4.10;1.73;;;31.10;95.00;;;;;;5097139;28;20028;-68
2021/08/14 09:06:56;;;;;;;7.13;2.17;;;31.50;94.80;;;;;;5096459;28;20396;-68
2021/08/14 09:09:28;;;;;;;9.00;2.20;;;31.80;94.20;;;;;;5096884;28;20028;-68
2021/08/14 09:12:00;;;;;;;3.28;1.85;;;32.00;93.30;;;;;;5096671;28;20115;-68
2021/08/14 09:14:28;;;;;;;7.63;3.28;;;32.10;92.70;;;;;;5096816;28;20055;-68
2021/08/14 09:17:05;;;;;;;5.18;2.08;;;32.20;91.80;;;;;;5096928;28;20546;-68
2021/08/14 09:19:31;;;;;;;6.15;2.50;;;32.30;92.10;;;;;;5097130;28;20024;-68
2021/08/14 09:22:10;;;;;;;5.45;1.83;;;32.40;91.60;;;;;;5096540;28;20111;-68
2021/08/14 09:24:38;;;;;;;1.67;1.23;;;32.40;91.10;;;;;;5095314;28;20084;-68
2021/08/14 09:27:06;;;;;;;5.63;2.25;;;32.60;91.30;;;;;;5096870;28;20045;-69
2021/08/14 09:29:36;;;;;;;4.78;1.80;;;32.90;90.50;;;;;;5096871;28;20412;-68
2021/08/14 09:32:10;;;;;;;4.75;2.10;;;33.10;88.80;;;;;;5096712;28;20020;-69
2021/08/14 09:34:42;;;;;;;5.03;2.30;;;33.20;88.60;;;;;;5096718;28;20054;-69
2021/08/14 09:37:11;;;;;;;3.58;1.63;;;33.30;87.30;;;;;;5096336;28;20092;-68
2021/08/14 09:39:58;;;;;;;6.20;2.58;;;33.70;85.90;;;;;;5096366;28;20024;-68
2021/08/14 09:42:26;;;;;;;8.35;2.30;;;33.90;86.10;;;;;;5095108;28;20111;-69
2021/08/14 09:45:13;;;;;;;6.70;2.08;;;33.90;84.60;;;;;;5095141;28;20063;-68
2021/08/14 09:47:39;;;;;;;6.40;2.05;;;33.90;83.40;;;;;;5096404;28;20020;-68
2021/08/14 09:50:06;;;;;;;6.65;2.60;;;33.80;83.60;;;;;;5096666;28;20021;-68
2021/08/14 09:52:32;;;;;;;4.32;2.72;;;33.90;83.10;;;;;;5096202;28;20019;-69
2021/08/14 09:54:58;;;;;;;5.18;1.95;;;34.20;85.10;;;;;;5096381;28;20024;-69
2021/08/14 09:57:24;;;;;;;3.30;1.70;;;34.40;85.70;;;;;;5094992;28;20031;-69
2021/08/14 09:59:51;;;;;;;5.38;2.10;;;34.80;81.80;;;;;;5095068;28;20081;-68
2021/08/14 10:02:22;;;;;;;4.35;1.77;;;34.80;83.50;;;;;;5094903;28;20085;-68
2021/08/14 10:04:49;;;;;;;4.32;1.95;;;34.90;82.00;;;;;;5094892;28;20032;-69
2021/08/14 10:07:15;;;;;;;3.35;2.25;;;31.30;78.60;;;;;;5098722;28;20016;-69
2021/08/14 10:09:46;;;;;;;3.25;2.58;;;34.40;79.70;;;;;;5099988;28;20216;-69
2021/08/14 10:12:12;;;;;;;4.07;2.38;;;34.70;81.40;;;;;;5100174;28;20023;-68
2021/08/14 10:14:44;;;;;;;3.78;1.85;;;34.90;82.10;;;;;;5098940;28;20036;-69
2021/08/14 10:17:10;;;;;;;2.60;1.63;;;35.30;77.50;;;;;;5100241;28;20020;-69
2021/08/14 10:19:37;;;;;;;2.15;1.88;;;34.40;77.70;;;;;;5098930;28;20028;-68
2021/08/14 10:22:05;;;;;;;2.55;1.60;;;34.70;79.70;;;;;;5100000;28;20020;-69
2021/08/14 10:24:39;;;;;;;5.70;1.90;;;35.60;78.00;;;;;;5100000;28;20032;-69
2021/08/14 10:27:10;;;;;;;2.47;1.58;;;35.80;79.30;;;;;;5099935;28;20016;-68
2021/08/14 10:29:58;;;;;;;5.10;1.85;;;36.30;76.70;;;;;;5100030;28;20032;-69
2021/08/14 10:32:30;;;;;;;1.27;1.05;;;36.60;77.40;;;;;;5098029;28;20024;-69
2021/08/14 10:35:14;;;;;;;2.95;1.70;;;36.90;75.80;;;;;;5099551;28;20020;-69
2021/08/14 10:37:41;;;;;;;;;;;36.60;73.80;;;;;;5099752;28;20089;-68
2021/08/14 10:40:08;;;;;;;3.58;1.42;;;36.60;76.40;;;;;;5099719;28;19963;-69
2021/08/14 10:42:49;;;;;;;3.28;1.88;;;36.60;76.30;;;;;;5099703;28;20031;-69
2021/08/14 10:45:22;;;;;;;1.80;1.48;;;36.80;74.90;;;;;;5099608;28;20024;-69
2021/08/14 10:47:50;;;;;;;1.40;1.30;;;36.80;73.90;;;;;;5099670;28;20073;-68
2021/08/14 10:50:31;;;;;;;5.32;2.22;;;37.00;73.40;;;;;;5098042;28;20514;-69
2021/08/14 10:53:16;;;;;;;3.88;1.48;;;37.30;74.10;;;;;;5099100;28;20035;-68
2021/08/14 10:55:47;;;;;;;5.15;2.13;;;38.10;70.70;;;;;;5097855;28;20032;-69
2021/08/14 10:58:19;;;;;;;3.78;2.10;;;38.10;71.80;;;;;;5099381;28;20075;-69
2021/08/14 11:00:45;;;;;;;2.38;1.60;;;38.30;71.90;;;;;;5099398;28;20024;-69
2021/08/14 11:03:13;;;;;;;1.98;1.58;;;38.30;70.50;;;;;;5099115;28;20020;-69
2021/08/14 11:05:43;;;;;;;2.10;1.50;;;38.20;68.90;;;;;;5099359;28;20032;-69
2021/08/14 11:08:29;;;;;;;4.32;1.88;;;38.10;69.40;;;;;;5098842;28;20036;-69
2021/08/14 11:10:55;;;;;;;3.60;1.92;;;38.00;70.80;;;;;;5099285;28;20090;-69
2021/08/14 11:13:31;;;;;;;2.55;1.75;;;37.60;69.10;;;;;;5098794;28;20020;-69
2021/08/14 11:15:57;;;;;;;3.45;1.60;;;37.80;69.60;;;;;;5099041;28;20032;-69
2021/08/14 11:18:51;;;;;;;4.35;2.47;;;37.90;68.10;;;;;;5098817;28;20023;-69
2021/08/14 11:21:17;;;;;;;3.38;1.75;;;37.80;67.30;;;;;;5098379;28;20054;-69
2021/08/14 11:23:59;;;;;;;2.80;1.45;;;38.00;68.00;;;;;;5098932;28;20026;-69
2021/08/14 11:26:35;;;;;;;5.13;1.48;;;38.20;68.80;;;;;;5098821;28;20039;-69
2021/08/14 11:29:03;;;;;;;3.22;1.80;;;38.60;67.70;;;;;;5097668;28;20375;-69
2021/08/14 11:31:29;;;;;;;3.25;1.75;;;38.20;64.50;;;;;;5098349;28;20020;-69
2021/08/14 11:34:01;;;;;;;3.03;1.92;;;38.20;67.80;;;;;;5097279;28;20035;-69
2021/08/14 11:36:30;;;;;;;1.75;1.65;;;38.60;65.00;;;;;;5098113;28;20040;-69
2021/08/14 11:39:01;;;;;;;2.65;1.33;;;38.90;64.30;;;;;;5098313;28;20361;-69
2021/08/14 11:41:27;;;;;;;1.42;1.30;;;38.90;65.00;;;;;;5098526;28;20039;-69
2021/08/14 11:43:59;;;;;;;4.32;1.95;;;39.30;65.20;;;;;;5098373;28;20024;-69
2021/08/14 11:46:25;;;;;;;3.28;1.52;;;39.70;63.80;;;;;;5098469;28;20032;-68
2021/08/14 11:48:51;;;;;;;4.47;1.48;;;40.00;63.20;;;;;;5098293;28;20499;-69
2021/08/14 11:51:24;;;;;;;2.55;1.92;;;40.20;61.30;;;;;;5098002;28;20388;-68
2021/08/14 11:54:06;;;;;;;;;;;40.40;61.30;;;;;;5098431;28;20141;-66
2021/08/14 11:56:33;;;;;;;3.13;2.10;;;40.10;58.00;;;;;;5098310;28;20040;-66
2021/08/14 11:58:59;;;;;;;2.03;1.40;;;38.80;58.60;;;;;;5097942;28;20502;-66
2021/08/14 12:01:25;;;;;;;2.50;1.65;;;38.30;60.40;;;;;;5098183;28;20031;-66
2021/08/14 12:03:58;;;;;;;2.95;2.05;;;38.70;61.90;;;;;;5097058;28;20077;-66
2021/08/14 12:06:31;;;;;;;1.92;1.67;;;39.50;60.70;;;;;;5097762;28;20111;-67
2021/08/14 12:08:59;;;;;;;1.83;1.60;;;40.00;59.50;;;;;;5097724;28;20480;-66
2021/08/14 12:11:27;;;;;;;2.13;1.90;;;40.60;58.60;;;;;;5097800;28;20031;-66
2021/08/14 12:14:12;;;;;;;2.05;1.50;;;40.80;57.40;;;;;;5096530;28;20089;-67
2021/08/14 12:16:40;;;;;;;5.13;2.40;;;41.10;57.20;;;;;;5096376;28;20446;-67
2021/08/14 12:19:24;;;;;;;3.15;1.85;;;41.00;56.30;;;;;;5097904;28;20026;-66
2021/08/14 12:22:08;;;;;;;3.47;1.70;;;40.80;54.80;;;;;;5097244;28;20028;-66
2021/08/14 12:24:34;;;;;;;3.70;1.63;;;40.60;56.80;;;;;;5097616;28;20429;-67
2021/08/14 12:27:00;;;;;;;1.80;1.42;;;40.40;57.10;;;;;;5097636;28;20043;-67
2021/08/14 12:29:26;;;;;;;3.25;2.17;;;40.20;55.20;;;;;;5097004;28;20219;-67
2021/08/14 12:31:54;;;;;;;2.35;1.90;;;40.20;53.40;;;;;;5097346;28;20023;-66
2021/08/14 12:34:28;;;;;;;2.17;1.88;;;40.20;52.10;;;;;;5097224;28;20119;-66
2021/08/14 12:37:10;;;;;;;3.33;1.80;;;39.80;52.30;;;;;;5097197;28;20063;-66
2021/08/14 12:39:55;;;;;;;1.70;1.60;;;39.50;52.80;;;;;;5097287;28;20124;-66
2021/08/14 12:42:28;;;;;;;2.10;1.70;;;39.80;54.60;;;;;;5095880;28;20016;-66
2021/08/14 12:44:55;;;;;;;2.40;1.93;;;40.00;54.60;;;;;;5097355;28;20468;-66
2021/08/14 12:47:29;;;;;;;2.70;1.77;;;39.70;54.90;;;;;;5097325;28;20269;-67
2021/08/14 12:50:15;;;;;;;5.20;1.75;;;39.50;55.70;;;;;;5097318;28;20077;-66
2021/08/14 12:52:51;;;;;;;4.22;2.03;;;39.40;54.20;;;;;;5096966;28;20031;-66